createdAt,value
2023-03-16T00:03:01.640Z,75.19
2023-03-16T00:05:48.477Z,75.32
2023-03-16T00:08:35.102Z,75.47
2023-03-16T00:11:20.809Z,75.67
2023-03-16T00:14:06.825Z,75.85
2023-03-16T00:16:52.743Z,75.99
2023-03-16T00:19:38.247Z,76.14
2023-03-16T00:22:28.995Z,76.28
2023-03-16T00:25:14.613Z,76.78
2023-03-16T00:28:03.052Z,76.84
2023-03-16T00:30:48.729Z,76.82
2023-03-16T00:33:34.322Z,76.80
2023-03-16T00:36:22.110Z,76.88
2023-03-16T00:39:07.857Z,77.21
2023-03-16T00:41:57.835Z,77.30
2023-03-16T00:44:43.231Z,77.25
2023-03-16T00:47:32.132Z,77.36
2023-03-16T00:50:17.414Z,77.69
2023-03-16T00:53:02.872Z,77.79
2023-03-16T00:55:48.452Z,77.83
2023-03-16T00:58:36.025Z,77.92
2023-03-16T01:01:40.532Z,78.11
2023-03-16T01:04:27.376Z,78.09
2023-03-16T01:07:14.953Z,77.98
2023-03-16T01:10:03.006Z,78.03
2023-03-16T01:12:49.885Z,78.11
2023-03-16T01:15:36.518Z,78.16
2023-03-16T01:18:23.787Z,78.26
2023-03-16T01:21:13.981Z,78.37
2023-03-16T01:24:00.484Z,78.40
2023-03-16T01:26:47.563Z,78.39
2023-03-16T01:29:35.164Z,78.38
2023-03-16T01:32:21.774Z,78.44
2023-03-16T01:35:09.319Z,78.51
2023-03-16T01:37:56.062Z,78.58
2023-03-16T01:40:42.654Z,78.70
2023-03-16T01:43:33.439Z,78.72
2023-03-16T01:46:26.796Z,78.79
2023-03-16T01:49:35.720Z,78.92
2023-03-16T01:52:29.076Z,79.01
2023-03-16T01:55:15.797Z,79.09
2023-03-16T01:58:02.629Z,79.18
2023-03-16T02:00:49.106Z,79.27
2023-03-16T02:03:39.141Z,79.36
2023-03-16T02:06:26.089Z,79.42
2023-03-16T02:13:38.702Z,79.71
2023-03-16T02:16:25.433Z,79.66
2023-03-16T02:19:20.561Z,79.78
2023-03-16T02:22:08.924Z,79.87
2023-03-16T02:24:55.607Z,79.96
2023-03-16T02:27:42.137Z,80.00
2023-03-16T02:30:29.668Z,80.08
2023-03-16T02:33:17.788Z,80.14
2023-03-16T02:40:30.960Z,80.38
2023-03-16T02:43:22.722Z,80.37
2023-03-16T02:46:09.781Z,80.48
2023-03-16T02:49:22.468Z,80.59
2023-03-16T02:52:12.205Z,80.70
2023-03-16T02:54:58.676Z,80.78
2023-03-16T02:57:45.502Z,80.91
2023-03-16T03:00:32.286Z,81.17
2023-03-16T03:03:19.059Z,81.23
2023-03-16T03:06:06.206Z,81.28
2023-03-16T03:08:52.942Z,81.35
2023-03-16T03:11:39.387Z,81.42
2023-03-16T03:14:25.859Z,81.49
2023-03-16T03:17:13.555Z,81.54
2023-03-16T03:20:02.627Z,81.61
2023-03-16T03:22:52.733Z,81.72
2023-03-16T03:25:39.169Z,81.78
2023-03-16T03:28:26.383Z,81.85
2023-03-16T03:31:17.789Z,81.89
2023-03-16T03:34:06.780Z,82.10
2023-03-16T03:36:53.759Z,82.23
2023-03-16T03:39:40.588Z,82.32
2023-03-16T03:42:29.585Z,82.34
2023-03-16T03:45:16.716Z,82.37
2023-03-16T03:48:03.638Z,82.35
2023-03-16T03:50:50.914Z,82.35
2023-03-16T03:53:37.729Z,82.40
2023-03-16T03:56:25.367Z,82.45
2023-03-16T03:59:12.225Z,82.45
2023-03-16T04:01:59.107Z,82.49
2023-03-16T04:04:45.807Z,82.54
2023-03-16T04:07:32.593Z,82.60
2023-03-16T04:10:19.055Z,82.63
2023-03-16T04:13:05.627Z,82.67
2023-03-16T04:15:59.831Z,82.75
2023-03-16T04:18:46.478Z,82.80
2023-03-16T04:21:34.089Z,82.91
2023-03-16T04:24:22.440Z,83.00
2023-03-16T04:27:12.105Z,83.02
2023-03-16T04:29:59.768Z,83.09
2023-03-16T04:32:49.512Z,83.09
2023-03-16T04:35:36.183Z,83.12
2023-03-16T04:38:22.934Z,83.13
2023-03-16T04:41:11.432Z,83.15
2023-03-16T04:43:59.092Z,83.14
2023-03-16T04:46:45.899Z,83.19
2023-03-16T04:49:32.423Z,83.25
2023-03-16T04:52:19.283Z,83.32
2023-03-16T04:55:06.540Z,83.41
2023-03-16T04:57:53.348Z,83.51
2023-03-16T05:00:41.459Z,83.57
2023-03-16T05:03:28.068Z,83.75
2023-03-16T05:06:14.763Z,83.78
2023-03-16T05:09:01.475Z,83.90
2023-03-16T05:11:47.882Z,83.76
2023-03-16T05:14:36.610Z,83.68
2023-03-16T05:17:23.109Z,83.74
2023-03-16T05:20:15.849Z,83.78
2023-03-16T05:23:03.028Z,83.88
2023-03-16T05:25:50.607Z,84.33
2023-03-16T05:28:37.032Z,84.07
2023-03-16T05:31:26.771Z,83.61
2023-03-16T05:34:13.614Z,83.14
2023-03-16T05:37:02.315Z,82.20
2023-03-16T05:39:49.021Z,81.41
2023-03-16T05:42:35.515Z,80.79
2023-03-16T05:45:22.252Z,79.66
2023-03-16T05:48:09.281Z,77.69
2023-03-16T05:50:55.773Z,75.55
2023-03-16T05:53:42.634Z,73.00
2023-03-16T05:56:31.595Z,72.27
2023-03-16T05:59:18.366Z,69.48
2023-03-16T06:02:05.255Z,69.67
2023-03-16T06:04:51.814Z,67.63
2023-03-16T06:07:41.257Z,65.30
2023-03-16T06:10:28.162Z,64.59
2023-03-16T06:13:15.174Z,61.14
2023-03-16T06:16:02.332Z,57.83
2023-03-16T06:18:49.751Z,56.80
2023-03-16T06:21:36.562Z,55.44
2023-03-16T06:24:23.597Z,51.95
2023-03-16T06:27:11.154Z,51.80
2023-03-16T06:29:57.524Z,52.11
2023-03-16T06:32:47.676Z,52.07
2023-03-16T06:35:34.839Z,51.93
2023-03-16T06:38:21.356Z,51.31
2023-03-16T06:41:08.159Z,50.75
2023-03-16T06:43:55.015Z,49.75
2023-03-16T06:46:41.883Z,48.58
2023-03-16T06:49:28.722Z,48.50
2023-03-16T06:52:15.288Z,48.74
2023-03-16T06:55:03.638Z,49.35
2023-03-16T06:57:50.530Z,49.78
2023-03-16T07:00:38.186Z,50.00
2023-03-16T07:03:27.137Z,50.01
2023-03-16T07:06:22.187Z,49.27
2023-03-16T07:09:12.577Z,49.69
2023-03-16T07:12:13.957Z,50.14
2023-03-16T07:15:01.302Z,49.23
2023-03-16T07:17:48.786Z,49.76
2023-03-16T07:20:37.199Z,50.70
2023-03-16T07:23:26.347Z,51.91
2023-03-16T07:26:14.819Z,51.65
2023-03-16T07:29:07.628Z,50.77
2023-03-16T07:31:55.826Z,50.22
2023-03-16T07:34:45.395Z,49.29
2023-03-16T07:37:35.173Z,48.59
2023-03-16T07:40:22.402Z,47.66
2023-03-16T07:43:09.346Z,46.72
2023-03-16T07:45:56.649Z,46.38
2023-03-16T07:48:52.175Z,44.92
2023-03-16T07:51:41.268Z,46.04
2023-03-16T07:54:41.730Z,46.90
2023-03-16T07:57:32.566Z,47.11
2023-03-16T08:00:24.801Z,46.86
2023-03-16T08:03:14.190Z,45.48
2023-03-16T08:06:19.924Z,45.60
2023-03-16T08:09:07.087Z,44.20
2023-03-16T08:11:57.852Z,45.15
2023-03-16T08:14:47.357Z,43.97
2023-03-16T08:17:35.585Z,44.62
2023-03-16T08:20:25.447Z,44.00
2023-03-16T08:23:13.384Z,43.42
2023-03-16T08:26:01.231Z,44.15
2023-03-16T08:29:19.025Z,45.59
2023-03-16T08:32:13.358Z,45.90
2023-03-16T08:35:08.899Z,45.36
2023-03-16T08:38:00.141Z,46.02
2023-03-16T08:40:53.925Z,45.77
2023-03-16T08:43:42.394Z,46.18
2023-03-16T08:46:32.548Z,47.54
2023-03-16T08:49:24.600Z,46.68
2023-03-16T08:52:13.202Z,44.40
2023-03-16T08:55:03.780Z,43.71
2023-03-16T08:57:52.466Z,42.55
2023-03-16T09:00:46.472Z,41.70
2023-03-16T09:03:37.371Z,41.01
2023-03-16T09:06:27.820Z,41.85
2023-03-16T09:09:15.785Z,44.21
2023-03-16T09:12:12.543Z,44.58
2023-03-16T09:15:02.520Z,45.03
2023-03-16T09:18:00.128Z,45.24
2023-03-16T09:20:48.465Z,43.67
2023-03-16T09:23:38.747Z,44.05
2023-03-16T09:37:16.453Z,38.79
2023-03-16T09:40:28.545Z,39.69
2023-03-16T09:43:59.534Z,43.01
2023-03-16T09:46:49.605Z,45.19
2023-03-16T09:49:43.976Z,46.62
2023-03-16T09:52:35.606Z,47.92
2023-03-16T09:55:28.422Z,48.53
2023-03-16T09:58:30.080Z,47.93
2023-03-16T10:01:35.462Z,48.39
2023-03-16T10:04:39.820Z,46.10
2023-03-16T10:07:50.341Z,43.37
2023-03-16T10:11:07.391Z,40.76
2023-03-16T10:14:01.439Z,40.71
2023-03-16T10:17:01.477Z,41.00
2023-03-16T10:20:01.824Z,42.47
2023-03-16T10:22:52.610Z,43.87
2023-03-16T10:25:56.583Z,44.83
2023-03-16T10:28:48.820Z,45.63
2023-03-16T10:31:41.641Z,45.58
2023-03-16T10:34:30.799Z,43.26
2023-03-16T10:37:19.624Z,40.15
2023-03-16T10:40:10.811Z,37.55
2023-03-16T10:43:10.545Z,37.26
2023-03-16T10:46:04.370Z,37.03
2023-03-16T10:49:01.991Z,35.50
2023-03-16T10:51:49.767Z,35.68
2023-03-16T10:54:41.912Z,36.39
2023-03-16T10:57:34.253Z,37.47
2023-03-16T11:00:41.896Z,38.06
2023-03-16T11:03:32.411Z,38.72
2023-03-16T11:10:59.955Z,42.86
2023-03-16T11:13:49.436Z,41.78
2023-03-16T11:27:35.090Z,41.28
2023-03-16T11:30:31.073Z,39.68
2023-03-16T11:33:19.137Z,38.41
2023-03-16T11:36:43.596Z,35.46
2023-03-16T11:39:41.097Z,36.44
2023-03-16T11:43:00.697Z,36.75
2023-03-16T11:46:02.833Z,37.25
2023-03-16T11:49:28.754Z,39.07
2023-03-16T11:53:10.405Z,40.48
2023-03-16T11:56:15.625Z,42.44
2023-03-16T11:59:18.595Z,43.09
2023-03-16T12:02:32.477Z,44.85
2023-03-16T12:05:29.573Z,46.66
2023-03-16T12:08:23.615Z,48.43
2023-03-16T12:11:23.447Z,49.91
2023-03-16T12:14:24.697Z,51.54
2023-03-16T12:17:23.431Z,53.08
2023-03-16T12:20:17.223Z,53.84
2023-03-16T12:23:33.281Z,54.90
2023-03-16T12:26:32.660Z,55.52
2023-03-16T12:29:30.983Z,55.32
2023-03-16T12:32:34.856Z,54.68
2023-03-16T12:35:46.948Z,54.08
2023-03-16T12:38:37.937Z,53.15
2023-03-16T12:41:30.182Z,52.64
2023-03-16T12:44:31.472Z,52.98
2023-03-16T12:47:46.512Z,52.61
2023-03-16T12:50:34.662Z,52.59
2023-03-16T12:53:42.338Z,53.40
2023-03-16T12:56:43.774Z,53.83
2023-03-16T12:59:43.060Z,54.69
2023-03-16T13:02:36.033Z,55.11
2023-03-16T13:05:36.301Z,54.22
2023-03-16T13:08:25.278Z,53.90
2023-03-16T13:11:16.613Z,53.71
2023-03-16T13:14:08.955Z,53.92
2023-03-16T13:17:07.206Z,52.99
2023-03-16T13:20:18.244Z,51.78
2023-03-16T13:23:53.709Z,52.58
2023-03-16T13:27:00.435Z,53.20
2023-03-16T13:29:55.575Z,53.20
2023-03-16T13:33:03.949Z,53.52
2023-03-16T13:36:08.763Z,53.22
2023-03-16T13:39:25.122Z,51.32
2023-03-16T13:42:33.518Z,51.08
2023-03-16T13:45:35.884Z,51.43
2023-03-16T13:48:26.109Z,51.08
2023-03-16T13:51:24.046Z,51.12
2023-03-16T13:54:26.703Z,49.91
2023-03-16T13:57:18.855Z,47.60
2023-03-16T14:00:20.299Z,47.81
2023-03-16T14:03:16.346Z,48.06
2023-03-16T14:06:05.617Z,47.74
2023-03-16T14:08:58.417Z,47.77
2023-03-16T14:11:48.684Z,47.50
2023-03-16T14:14:41.251Z,45.30
2023-03-16T14:17:28.926Z,44.59
2023-03-16T14:20:28.737Z,45.34
2023-03-16T14:23:24.706Z,46.99
2023-03-16T14:26:18.856Z,48.40
2023-03-16T14:29:16.219Z,49.14
2023-03-16T14:32:03.835Z,49.88
2023-03-16T14:34:51.321Z,50.07
2023-03-16T14:37:38.679Z,48.99
2023-03-16T14:40:30.900Z,48.51
2023-03-16T14:43:21.301Z,48.05
2023-03-16T14:46:13.537Z,49.01
2023-03-16T14:49:24.872Z,49.86
2023-03-16T14:52:31.775Z,50.50
2023-03-16T14:55:22.530Z,50.90
2023-03-16T14:58:10.038Z,50.57
2023-03-16T15:00:56.710Z,50.82
2023-03-16T15:03:45.196Z,50.51
2023-03-16T15:06:33.023Z,49.76
2023-03-16T15:09:47.152Z,49.96
2023-03-16T15:12:34.944Z,50.33
2023-03-16T15:15:24.073Z,50.10
2023-03-16T15:22:39.229Z,50.68
2023-03-16T15:25:37.534Z,50.28
2023-03-16T15:29:22.807Z,51.37
2023-03-16T15:32:14.696Z,51.78
2023-03-16T15:35:01.728Z,51.53
2023-03-16T15:37:48.921Z,52.38
2023-03-16T15:40:40.116Z,52.02
2023-03-16T15:43:29.418Z,49.58
2023-03-16T15:50:24.898Z,44.18
2023-03-16T15:53:29.976Z,43.67
2023-03-16T15:56:24.883Z,44.27
2023-03-16T15:59:17.307Z,45.50
2023-03-16T16:02:25.265Z,46.90
2023-03-16T16:05:12.602Z,48.35
2023-03-16T16:08:01.082Z,49.11
2023-03-16T16:10:49.889Z,49.53
2023-03-16T16:13:44.653Z,49.95
2023-03-16T16:16:33.952Z,50.63
2023-03-16T16:19:21.637Z,51.31
2023-03-16T16:22:13.162Z,52.75
2023-03-16T16:24:59.977Z,53.93
2023-03-16T16:27:47.398Z,55.50
2023-03-16T16:30:36.240Z,56.62
2023-03-16T16:33:30.187Z,57.37
2023-03-16T16:36:20.330Z,58.19
2023-03-16T16:39:07.813Z,58.73
2023-03-16T16:41:56.966Z,59.37
2023-03-16T16:44:46.597Z,59.81
2023-03-16T16:47:33.241Z,60.29
2023-03-16T16:50:23.017Z,60.66
2023-03-16T16:53:20.912Z,61.14
2023-03-16T16:56:13.739Z,61.43
2023-03-16T16:59:07.243Z,61.83
2023-03-16T17:01:57.538Z,62.16
2023-03-16T17:04:44.194Z,62.46
2023-03-16T17:07:31.014Z,62.82
2023-03-16T17:10:26.037Z,63.34
2023-03-16T17:13:39.269Z,63.68
2023-03-16T17:16:28.792Z,64.03
2023-03-16T17:19:19.863Z,64.38
2023-03-16T17:22:24.811Z,64.78
2023-03-16T17:25:11.502Z,65.10
2023-03-16T17:27:58.565Z,65.40
2023-03-16T17:30:48.239Z,65.71
2023-03-16T17:33:34.695Z,65.97
2023-03-16T17:36:22.386Z,66.18
2023-03-16T17:39:18.748Z,66.43
2023-03-16T17:42:14.570Z,66.78
2023-03-16T17:45:01.625Z,66.99
2023-03-16T17:47:50.383Z,67.10
2023-03-16T17:50:39.972Z,67.38
2023-03-16T17:53:26.889Z,67.69
2023-03-16T17:56:26.015Z,68.01
2023-03-16T17:59:19.238Z,68.30
2023-03-16T18:14:44.505Z,69.40
2023-03-16T18:17:33.784Z,69.75
2023-03-16T18:20:23.334Z,69.78
2023-03-16T18:23:16.194Z,70.20
2023-03-16T18:26:04.160Z,70.61
2023-03-16T18:28:53.489Z,70.65
2023-03-16T18:31:41.280Z,70.74
2023-03-16T18:34:33.779Z,70.91
2023-03-16T18:37:23.595Z,71.24
2023-03-16T18:40:13.738Z,71.53
2023-03-16T18:43:00.393Z,71.70
2023-03-16T18:45:48.092Z,72.02
2023-03-16T18:48:36.750Z,72.15
2023-03-16T18:51:30.508Z,72.44
2023-03-16T18:54:29.334Z,72.52
2023-03-16T18:57:19.092Z,72.39
2023-03-16T19:00:06.587Z,72.34
2023-03-16T19:02:59.371Z,72.32
2023-03-16T19:05:50.098Z,72.34
2023-03-16T19:08:36.928Z,72.46
2023-03-16T19:11:23.873Z,72.48
2023-03-16T19:14:23.569Z,72.48
2023-03-16T19:17:10.280Z,72.53
2023-03-16T19:19:57.304Z,72.57
2023-03-16T19:22:46.031Z,72.63
2023-03-16T19:25:37.586Z,72.60
2023-03-16T19:32:46.745Z,72.68
2023-03-16T19:35:50.334Z,72.66
2023-03-16T19:43:01.217Z,73.00
2023-03-16T19:45:49.259Z,73.14
2023-03-16T19:48:37.596Z,73.45
2023-03-16T19:51:26.470Z,73.70
2023-03-16T19:54:25.397Z,73.86
2023-03-16T19:57:15.320Z,74.22
2023-03-16T20:00:02.508Z,74.26
2023-03-16T20:02:51.617Z,74.43
2023-03-16T20:05:39.909Z,74.56
2023-03-16T20:09:29.616Z,74.74
2023-03-16T20:12:29.167Z,74.67
2023-03-16T20:15:20.930Z,74.52
2023-03-16T20:18:16.332Z,74.54
2023-03-16T20:21:07.283Z,74.55
2023-03-16T20:23:54.414Z,74.48
2023-03-16T20:26:48.583Z,74.36
2023-03-16T20:29:35.437Z,74.43
2023-03-16T20:32:30.862Z,74.39
2023-03-16T20:35:25.740Z,74.41
2023-03-16T20:38:14.955Z,74.38
2023-03-16T20:41:01.814Z,74.51
2023-03-16T20:43:48.581Z,74.47
2023-03-16T20:46:35.748Z,74.47
2023-03-16T20:49:21.986Z,74.38
2023-03-16T20:52:20.645Z,74.33
2023-03-16T20:55:07.361Z,74.38
2023-03-16T20:57:55.474Z,74.48
2023-03-16T21:00:41.936Z,74.66
2023-03-16T21:03:31.024Z,74.56
2023-03-16T21:06:24.271Z,74.79
2023-03-16T21:09:12.469Z,74.78
2023-03-16T21:12:00.203Z,74.68
2023-03-16T21:14:47.071Z,74.47
2023-03-16T21:17:38.306Z,74.37
2023-03-16T21:20:27.115Z,74.41
2023-03-16T21:23:22.481Z,74.40
2023-03-16T21:26:20.386Z,74.19
2023-03-16T21:29:21.349Z,73.97
2023-03-16T21:32:20.394Z,74.02
2023-03-16T21:35:14.022Z,73.92
2023-03-16T21:38:11.712Z,74.05
2023-03-16T21:40:59.622Z,74.30
2023-03-16T21:46:59.646Z,74.79
2023-03-16T21:49:46.202Z,75.03
2023-03-16T21:52:33.893Z,75.08
2023-03-16T21:55:24.042Z,75.07
2023-03-16T21:58:10.736Z,75.26
2023-03-16T22:00:58.443Z,75.22
2023-03-16T22:03:50.983Z,75.17
2023-03-16T22:06:39.502Z,75.26
2023-03-16T22:09:30.203Z,75.44
2023-03-16T22:12:16.722Z,75.64
2023-03-16T22:15:03.643Z,75.62
2023-03-16T22:17:50.467Z,75.54
2023-03-16T22:20:37.334Z,75.49
2023-03-16T22:23:34.148Z,75.36
2023-03-16T22:26:22.824Z,75.28
2023-03-16T22:29:30.886Z,75.35
2023-03-16T22:32:21.207Z,75.53
2023-03-16T22:35:22.013Z,75.54
2023-03-16T22:38:12.479Z,75.91
2023-03-16T22:41:00.637Z,76.11
2023-03-16T22:43:48.396Z,76.34
2023-03-16T22:46:34.727Z,76.51
2023-03-16T22:49:27.260Z,76.74
2023-03-16T22:52:13.742Z,76.92
2023-03-16T22:55:01.803Z,77.13
2023-03-16T22:57:51.780Z,77.54
2023-03-16T23:00:38.439Z,77.84
2023-03-16T23:03:25.259Z,77.77
2023-03-16T23:07:03.926Z,77.90
2023-03-16T23:09:50.390Z,78.12
2023-03-16T23:12:37.058Z,78.27
2023-03-16T23:15:28.640Z,78.67
2023-03-16T23:18:24.569Z,78.82
2023-03-16T23:21:19.176Z,78.86
2023-03-16T23:24:06.539Z,78.92
2023-03-16T23:26:54.654Z,79.20
2023-03-16T23:29:41.622Z,79.58
2023-03-16T23:32:28.531Z,79.70
2023-03-16T23:35:18.712Z,79.84
2023-03-16T23:38:05.734Z,79.82
2023-03-16T23:40:52.344Z,80.17
2023-03-16T23:43:43.971Z,80.17
2023-03-16T23:46:30.590Z,80.50
2023-03-16T23:49:30.689Z,80.74
2023-03-16T23:52:17.780Z,81.07
2023-03-16T23:55:10.184Z,81.10
2023-03-16T23:57:56.941Z,81.06
